sensor_id;sensor_type;location;lat;lon;timestamp;temperature;humidity
71304;DHT22;59091;47.446;19.148;2023-10-19T00:00:33;10.92;60.83
71304;DHT22;59091;47.446;19.148;2023-10-19T00:02:59;10.92;61.06
71304;DHT22;59091;47.446;19.148;2023-10-19T00:05:28;11.01;60.76
71304;DHT22;59091;47.446;19.148;2023-10-19T00:07:56;10.92;60.49
71304;DHT22;59091;47.446;19.148;2023-10-19T00:10:23;10.95;60.58
71304;DHT22;59091;47.446;19.148;2023-10-19T00:12:51;10.99;60.78
71304;DHT22;59091;47.446;19.148;2023-10-19T00:15:25;11.02;60.71
71304;DHT22;59091;47.446;19.148;2023-10-19T00:17:53;11.04;60.52
71304;DHT22;59091;47.446;19.148;2023-10-19T00:20:19;11.05;60.34
71304;DHT22;59091;47.446;19.148;2023-10-19T00:23:02;11.04;60.39
71304;DHT22;59091;47.446;19.148;2023-10-19T00:25:31;11.06;60.47
71304;DHT22;59091;47.446;19.148;2023-10-19T00:27:57;11.09;60.53
71304;DHT22;59091;47.446;19.148;2023-10-19T00:30:26;11.05;60.54
71304;DHT22;59091;47.446;19.148;2023-10-19T00:32:56;11.02;60.71
71304;DHT22;59091;47.446;19.148;2023-10-19T00:35:22;10.99;61.38
71304;DHT22;59091;47.446;19.148;2023-10-19T00:38:00;10.96;61.62
71304;DHT22;59091;47.446;19.148;2023-10-19T00:40:50;10.95;61.92
71304;DHT22;59091;47.446;19.148;2023-10-19T00:43:31;10.92;62.20
71304;DHT22;59091;47.446;19.148;2023-10-19T00:46:03;10.98;62.38
71304;DHT22;59091;47.446;19.148;2023-10-19T00:48:43;10.78;62.52
71304;DHT22;59091;47.446;19.148;2023-10-19T00:51:11;10.85;62.73
71304;DHT22;59091;47.446;19.148;2023-10-19T00:53:52;10.78;63.01
71304;DHT22;59091;47.446;19.148;2023-10-19T00:56:19;10.75;63.06
71304;DHT22;59091;47.446;19.148;2023-10-19T00:58:45;10.77;62.98
71304;DHT22;59091;47.446;19.148;2023-10-19T01:01:23;10.71;62.82
71304;DHT22;59091;47.446;19.148;2023-10-19T01:03:54;10.75;62.96
71304;DHT22;59091;47.446;19.148;2023-10-19T01:06:25;10.72;62.87
71304;DHT22;59091;47.446;19.148;2023-10-19T01:08:51;10.81;62.95
71304;DHT22;59091;47.446;19.148;2023-10-19T01:11:18;10.78;63.13
71304;DHT22;59091;47.446;19.148;2023-10-19T01:13:46;10.82;62.91
71304;DHT22;59091;47.446;19.148;2023-10-19T01:16:16;10.84;63.05
71304;DHT22;59091;47.446;19.148;2023-10-19T01:18:52;10.82;63.17
71304;DHT22;59091;47.446;19.148;2023-10-19T01:21:23;10.87;63.21
71304;DHT22;59091;47.446;19.148;2023-10-19T01:24:06;10.79;62.99
71304;DHT22;59091;47.446;19.148;2023-10-19T01:26:31;10.77;63.40
71304;DHT22;59091;47.446;19.148;2023-10-19T01:28:57;10.75;63.53
71304;DHT22;59091;47.446;19.148;2023-10-19T01:31:40;10.72;64.03
71304;DHT22;59091;47.446;19.148;2023-10-19T01:34:21;10.75;64.04
71304;DHT22;59091;47.446;19.148;2023-10-19T01:36:47;10.74;64.35
71304;DHT22;59091;47.446;19.148;2023-10-19T01:39:16;10.69;64.30
71304;DHT22;59091;47.446;19.148;2023-10-19T01:41:44;10.75;64.61
71304;DHT22;59091;47.446;19.148;2023-10-19T01:44:10;10.78;64.90
71304;DHT22;59091;47.446;19.148;2023-10-19T01:46:39;10.81;65.16
71304;DHT22;59091;47.446;19.148;2023-10-19T01:49:05;10.87;65.13
71304;DHT22;59091;47.446;19.148;2023-10-19T01:51:33;10.88;65.75
71304;DHT22;59091;47.446;19.148;2023-10-19T01:54:02;10.91;65.97
71304;DHT22;59091;47.446;19.148;2023-10-19T01:56:27;10.88;66.15
71304;DHT22;59091;47.446;19.148;2023-10-19T01:58:53;10.89;66.31
71304;DHT22;59091;47.446;19.148;2023-10-19T02:01:22;10.87;66.95
71304;DHT22;59091;47.446;19.148;2023-10-19T02:03:52;10.89;66.69
71304;DHT22;59091;47.446;19.148;2023-10-19T02:06:23;10.87;66.79
71304;DHT22;59091;47.446;19.148;2023-10-19T02:08:56;10.79;66.70
71304;DHT22;59091;47.446;19.148;2023-10-19T02:11:25;10.75;66.90
71304;DHT22;59091;47.446;19.148;2023-10-19T02:13:53;10.81;67.07
71304;DHT22;59091;47.446;19.148;2023-10-19T02:16:20;10.82;67.34
71304;DHT22;59091;47.446;19.148;2023-10-19T02:18:49;10.84;68.20
71304;DHT22;59091;47.446;19.148;2023-10-19T02:21:16;10.85;68.47
71304;DHT22;59091;47.446;19.148;2023-10-19T02:23:49;10.89;68.34
71304;DHT22;59091;47.446;19.148;2023-10-19T02:26:19;10.85;68.35
71304;DHT22;59091;47.446;19.148;2023-10-19T02:28:49;10.82;68.45
71304;DHT22;59091;47.446;19.148;2023-10-19T02:31:18;10.85;69.01
71304;DHT22;59091;47.446;19.148;2023-10-19T02:33:47;10.88;69.39
71304;DHT22;59091;47.446;19.148;2023-10-19T02:36:18;10.88;69.25
71304;DHT22;59091;47.446;19.148;2023-10-19T02:38:45;10.88;69.43
71304;DHT22;59091;47.446;19.148;2023-10-19T02:41:17;10.78;69.77
71304;DHT22;59091;47.446;19.148;2023-10-19T02:43:43;10.72;70.22
71304;DHT22;59091;47.446;19.148;2023-10-19T02:46:15;10.63;70.67
71304;DHT22;59091;47.446;19.148;2023-10-19T02:48:43;10.54;70.95
71304;DHT22;59091;47.446;19.148;2023-10-19T02:51:15;10.48;71.49
71304;DHT22;59091;47.446;19.148;2023-10-19T02:53:40;10.30;72.14
71304;DHT22;59091;47.446;19.148;2023-10-19T02:56:14;10.34;72.16
71304;DHT22;59091;47.446;19.148;2023-10-19T02:58:43;10.07;73.52
71304;DHT22;59091;47.446;19.148;2023-10-19T03:01:13;10.10;73.25
71304;DHT22;59091;47.446;19.148;2023-10-19T03:03:39;10.02;73.67
71304;DHT22;59091;47.446;19.148;2023-10-19T03:06:09;9.99;73.63
71304;DHT22;59091;47.446;19.148;2023-10-19T03:08:35;9.85;74.31
71304;DHT22;59091;47.446;19.148;2023-10-19T03:11:01;9.72;75.07
71304;DHT22;59091;47.446;19.148;2023-10-19T03:13:29;9.74;75.62
71304;DHT22;59091;47.446;19.148;2023-10-19T03:15:58;9.78;75.68
71304;DHT22;59091;47.446;19.148;2023-10-19T03:18:23;9.86;75.80
71304;DHT22;59091;47.446;19.148;2023-10-19T03:20:51;9.96;75.50
71304;DHT22;59091;47.446;19.148;2023-10-19T03:23:17;9.95;75.57
71304;DHT22;59091;47.446;19.148;2023-10-19T03:25:42;9.95;75.72
71304;DHT22;59091;47.446;19.148;2023-10-19T03:28:26;9.61;76.45
71304;DHT22;59091;47.446;19.148;2023-10-19T03:30:52;9.68;76.66
71304;DHT22;59091;47.446;19.148;2023-10-19T03:33:20;9.78;76.39
71304;DHT22;59091;47.446;19.148;2023-10-19T03:35:45;9.74;76.79
71304;DHT22;59091;47.446;19.148;2023-10-19T03:38:11;9.82;76.68
71304;DHT22;59091;47.446;19.148;2023-10-19T03:40:41;9.86;76.82
71304;DHT22;59091;47.446;19.148;2023-10-19T03:43:11;9.81;77.12
71304;DHT22;59091;47.446;19.148;2023-10-19T03:45:44;9.68;77.77
71304;DHT22;59091;47.446;19.148;2023-10-19T03:48:20;9.75;77.58
71304;DHT22;59091;47.446;19.148;2023-10-19T03:50:52;9.65;77.85
71304;DHT22;59091;47.446;19.148;2023-10-19T03:53:21;9.76;77.79
71304;DHT22;59091;47.446;19.148;2023-10-19T03:55:47;9.79;78.10
71304;DHT22;59091;47.446;19.148;2023-10-19T03:58:13;9.75;78.17
71304;DHT22;59091;47.446;19.148;2023-10-19T04:00:38;9.82;77.86
71304;DHT22;59091;47.446;19.148;2023-10-19T04:03:04;9.68;78.33
71304;DHT22;59091;47.446;19.148;2023-10-19T04:05:30;9.63;78.52
71304;DHT22;59091;47.446;19.148;2023-10-19T04:07:57;9.65;78.53
71304;DHT22;59091;47.446;19.148;2023-10-19T04:10:26;9.61;78.76
71304;DHT22;59091;47.446;19.148;2023-10-19T04:13:00;9.66;78.42
71304;DHT22;59091;47.446;19.148;2023-10-19T04:15:27;9.66;78.58
71304;DHT22;59091;47.446;19.148;2023-10-19T04:17:54;9.62;78.69
71304;DHT22;59091;47.446;19.148;2023-10-19T04:20:23;9.55;78.97
71304;DHT22;59091;47.446;19.148;2023-10-19T04:23:07;9.45;79.24
71304;DHT22;59091;47.446;19.148;2023-10-19T04:25:36;9.41;79.44
71304;DHT22;59091;47.446;19.148;2023-10-19T04:28:01;9.42;79.47
71304;DHT22;59091;47.446;19.148;2023-10-19T04:30:28;9.51;79.33
71304;DHT22;59091;47.446;19.148;2023-10-19T04:32:54;9.35;79.93
71304;DHT22;59091;47.446;19.148;2023-10-19T04:35:23;9.08;81.16
71304;DHT22;59091;47.446;19.148;2023-10-19T04:37:50;9.24;80.68
71304;DHT22;59091;47.446;19.148;2023-10-19T04:40:20;9.17;81.06
71304;DHT22;59091;47.446;19.148;2023-10-19T04:42:46;9.18;80.93
71304;DHT22;59091;47.446;19.148;2023-10-19T04:45:12;9.25;80.80
71304;DHT22;59091;47.446;19.148;2023-10-19T04:47:38;9.24;80.96
71304;DHT22;59091;47.446;19.148;2023-10-19T04:50:07;9.20;81.23
71304;DHT22;59091;47.446;19.148;2023-10-19T04:52:36;9.18;81.53
71304;DHT22;59091;47.446;19.148;2023-10-19T04:55:01;9.25;82.19
71304;DHT22;59091;47.446;19.148;2023-10-19T04:57:27;9.27;81.47
71304;DHT22;59091;47.446;19.148;2023-10-19T04:59:53;9.11;82.02
71304;DHT22;59091;47.446;19.148;2023-10-19T05:02:18;9.17;81.82
71304;DHT22;59091;47.446;19.148;2023-10-19T05:04:44;9.05;82.21
71304;DHT22;59091;47.446;19.148;2023-10-19T05:07:10;9.10;81.86
71304;DHT22;59091;47.446;19.148;2023-10-19T05:09:42;9.11;81.79
71304;DHT22;59091;47.446;19.148;2023-10-19T05:12:08;9.15;82.30
71304;DHT22;59091;47.446;19.148;2023-10-19T05:14:38;9.20;81.93
71304;DHT22;59091;47.446;19.148;2023-10-19T05:17:04;9.17;81.87
71304;DHT22;59091;47.446;19.148;2023-10-19T05:19:33;9.20;81.32
71304;DHT22;59091;47.446;19.148;2023-10-19T05:22:00;9.31;81.06
71304;DHT22;59091;47.446;19.148;2023-10-19T05:24:26;9.21;81.18
71304;DHT22;59091;47.446;19.148;2023-10-19T05:26:53;9.18;81.16
71304;DHT22;59091;47.446;19.148;2023-10-19T05:29:19;9.31;81.17
71304;DHT22;59091;47.446;19.148;2023-10-19T05:31:45;9.32;81.12
71304;DHT22;59091;47.446;19.148;2023-10-19T05:34:10;9.31;81.39
71304;DHT22;59091;47.446;19.148;2023-10-19T05:36:35;9.23;81.66
71304;DHT22;59091;47.446;19.148;2023-10-19T05:39:01;9.21;81.49
71304;DHT22;59091;47.446;19.148;2023-10-19T05:41:29;9.25;81.85
71304;DHT22;59091;47.446;19.148;2023-10-19T05:43:56;9.27;81.91
71304;DHT22;59091;47.446;19.148;2023-10-19T05:46:22;9.30;81.75
71304;DHT22;59091;47.446;19.148;2023-10-19T05:48:50;9.30;81.74
71304;DHT22;59091;47.446;19.148;2023-10-19T05:51:16;9.20;82.19
71304;DHT22;59091;47.446;19.148;2023-10-19T05:53:42;9.31;81.87
71304;DHT22;59091;47.446;19.148;2023-10-19T05:56:10;9.45;81.56
71304;DHT22;59091;47.446;19.148;2023-10-19T05:58:35;9.51;81.40
71304;DHT22;59091;47.446;19.148;2023-10-19T06:01:01;9.52;81.52
71304;DHT22;59091;47.446;19.148;2023-10-19T06:03:26;9.42;81.66
71304;DHT22;59091;47.446;19.148;2023-10-19T06:05:52;9.45;81.99
71304;DHT22;59091;47.446;19.148;2023-10-19T06:08:22;9.65;81.35
71304;DHT22;59091;47.446;19.148;2023-10-19T06:10:51;9.62;81.47
71304;DHT22;59091;47.446;19.148;2023-10-19T06:13:17;9.63;81.49
71304;DHT22;59091;47.446;19.148;2023-10-19T06:15:42;9.66;81.82
71304;DHT22;59091;47.446;19.148;2023-10-19T06:18:08;9.79;81.23
71304;DHT22;59091;47.446;19.148;2023-10-19T06:20:35;9.96;80.86
71304;DHT22;59091;47.446;19.148;2023-10-19T06:23:01;9.97;80.71
71304;DHT22;59091;47.446;19.148;2023-10-19T06:25:30;9.95;80.71
71304;DHT22;59091;47.446;19.148;2023-10-19T06:27:56;10.03;80.09
71304;DHT22;59091;47.446;19.148;2023-10-19T06:30:23;9.92;80.44
71304;DHT22;59091;47.446;19.148;2023-10-19T06:32:59;9.96;80.98
71304;DHT22;59091;47.446;19.148;2023-10-19T06:35:26;10.06;80.86
71304;DHT22;59091;47.446;19.148;2023-10-19T06:37:53;10.03;80.34
71304;DHT22;59091;47.446;19.148;2023-10-19T06:40:20;10.03;80.63
71304;DHT22;59091;47.446;19.148;2023-10-19T06:42:47;10.10;80.40
71304;DHT22;59091;47.446;19.148;2023-10-19T06:45:14;9.99;80.76
71304;DHT22;59091;47.446;19.148;2023-10-19T06:47:45;9.96;80.75
71304;DHT22;59091;47.446;19.148;2023-10-19T06:50:12;10.06;80.68
71304;DHT22;59091;47.446;19.148;2023-10-19T06:52:38;10.10;80.62
71304;DHT22;59091;47.446;19.148;2023-10-19T06:55:05;10.14;80.55
71304;DHT22;59091;47.446;19.148;2023-10-19T06:57:32;10.17;80.75
71304;DHT22;59091;47.446;19.148;2023-10-19T06:59:58;10.16;80.83
71304;DHT22;59091;47.446;19.148;2023-10-19T07:02:24;10.24;80.57
71304;DHT22;59091;47.446;19.148;2023-10-19T07:04:51;10.34;80.22
71304;DHT22;59091;47.446;19.148;2023-10-19T07:07:17;10.37;80.19
71304;DHT22;59091;47.446;19.148;2023-10-19T07:09:43;10.41;80.09
71304;DHT22;59091;47.446;19.148;2023-10-19T07:12:08;10.48;79.94
71304;DHT22;59091;47.446;19.148;2023-10-19T07:14:34;10.48;79.97
71304;DHT22;59091;47.446;19.148;2023-10-19T07:16:59;10.54;79.70
71304;DHT22;59091;47.446;19.148;2023-10-19T07:19:25;10.57;79.78
71304;DHT22;59091;47.446;19.148;2023-10-19T07:21:51;10.54;79.69
71304;DHT22;59091;47.446;19.148;2023-10-19T07:24:23;10.47;79.80
71304;DHT22;59091;47.446;19.148;2023-10-19T07:26:50;10.47;79.72
71304;DHT22;59091;47.446;19.148;2023-10-19T07:29:20;10.46;79.83
71304;DHT22;59091;47.446;19.148;2023-10-19T07:31:45;10.44;79.74
71304;DHT22;59091;47.446;19.148;2023-10-19T07:34:11;10.54;79.40
71304;DHT22;59091;47.446;19.148;2023-10-19T07:36:40;10.60;79.17
71304;DHT22;59091;47.446;19.148;2023-10-19T07:39:08;10.58;79.02
71304;DHT22;59091;47.446;19.148;2023-10-19T07:41:40;10.54;79.04
71304;DHT22;59091;47.446;19.148;2023-10-19T07:44:05;10.47;79.40
71304;DHT22;59091;47.446;19.148;2023-10-19T07:46:31;10.37;79.28
71304;DHT22;59091;47.446;19.148;2023-10-19T07:48:57;10.51;79.17
71304;DHT22;59091;47.446;19.148;2023-10-19T07:51:24;10.58;78.87
71304;DHT22;59091;47.446;19.148;2023-10-19T07:53:50;10.67;78.93
71304;DHT22;59091;47.446;19.148;2023-10-19T07:56:16;10.74;78.91
71304;DHT22;59091;47.446;19.148;2023-10-19T07:58:42;10.72;78.81
71304;DHT22;59091;47.446;19.148;2023-10-19T08:01:08;10.72;78.81
71304;DHT22;59091;47.446;19.148;2023-10-19T08:03:33;10.67;78.99
71304;DHT22;59091;47.446;19.148;2023-10-19T08:06:00;10.77;78.73
71304;DHT22;59091;47.446;19.148;2023-10-19T08:08:26;10.65;78.73
71304;DHT22;59091;47.446;19.148;2023-10-19T08:10:58;10.72;78.86
71304;DHT22;59091;47.446;19.148;2023-10-19T08:13:24;10.81;78.84
71304;DHT22;59091;47.446;19.148;2023-10-19T08:15:51;10.63;79.22
71304;DHT22;59091;47.446;19.148;2023-10-19T08:18:16;10.67;79.15
71304;DHT22;59091;47.446;19.148;2023-10-19T08:20:43;10.64;79.02
71304;DHT22;59091;47.446;19.148;2023-10-19T08:23:11;10.87;78.89
71304;DHT22;59091;47.446;19.148;2023-10-19T08:25:39;10.94;78.45
71304;DHT22;59091;47.446;19.148;2023-10-19T08:28:05;10.99;78.40
71304;DHT22;59091;47.446;19.148;2023-10-19T08:30:31;11.09;78.56
71304;DHT22;59091;47.446;19.148;2023-10-19T08:32:59;11.14;78.05
71304;DHT22;59091;47.446;19.148;2023-10-19T08:35:24;11.23;77.86
71304;DHT22;59091;47.446;19.148;2023-10-19T08:37:54;11.32;79.50
71304;DHT22;59091;47.446;19.148;2023-10-19T08:40:20;11.50;77.45
71304;DHT22;59091;47.446;19.148;2023-10-19T08:42:47;11.49;77.47
71304;DHT22;59091;47.446;19.148;2023-10-19T08:45:14;11.53;77.13
71304;DHT22;59091;47.446;19.148;2023-10-19T08:47:56;11.56;76.62
71304;DHT22;59091;47.446;19.148;2023-10-19T08:50:23;11.71;76.69
71304;DHT22;59091;47.446;19.148;2023-10-19T08:52:52;11.81;77.03
71304;DHT22;59091;47.446;19.148;2023-10-19T08:55:19;12.01;76.28
71304;DHT22;59091;47.446;19.148;2023-10-19T08:57:46;12.16;75.88
71304;DHT22;59091;47.446;19.148;2023-10-19T09:00:14;12.04;75.76
71304;DHT22;59091;47.446;19.148;2023-10-19T09:02:43;12.22;75.47
71304;DHT22;59091;47.446;19.148;2023-10-19T09:05:08;12.39;75.38
71304;DHT22;59091;47.446;19.148;2023-10-19T09:07:34;12.38;75.19
71304;DHT22;59091;47.446;19.148;2023-10-19T09:10:00;12.35;75.12
71304;DHT22;59091;47.446;19.148;2023-10-19T09:12:26;12.46;74.69
71304;DHT22;59091;47.446;19.148;2023-10-19T09:14:52;12.69;74.43
71304;DHT22;59091;47.446;19.148;2023-10-19T09:17:28;12.97;76.24
71304;DHT22;59091;47.446;19.148;2023-10-19T09:19:54;13.03;73.53
71304;DHT22;59091;47.446;19.148;2023-10-19T09:22:22;13.20;73.76
71304;DHT22;59091;47.446;19.148;2023-10-19T09:24:48;13.33;73.54
71304;DHT22;59091;47.446;19.148;2023-10-19T09:27:17;13.43;73.89
71304;DHT22;59091;47.446;19.148;2023-10-19T09:29:43;13.71;72.52
71304;DHT22;59091;47.446;19.148;2023-10-19T09:32:09;13.95;72.05
71304;DHT22;59091;47.446;19.148;2023-10-19T09:34:35;13.79;72.03
71304;DHT22;59091;47.446;19.148;2023-10-19T09:37:02;13.78;71.87
71304;DHT22;59091;47.446;19.148;2023-10-19T09:39:29;13.89;71.98
71304;DHT22;59091;47.446;19.148;2023-10-19T09:42:08;13.86;71.50
71304;DHT22;59091;47.446;19.148;2023-10-19T09:44:44;13.81;72.00
71304;DHT22;59091;47.446;19.148;2023-10-19T09:47:33;14.01;71.62
71304;DHT22;59091;47.446;19.148;2023-10-19T09:50:02;13.97;71.38
71304;DHT22;59091;47.446;19.148;2023-10-19T09:52:31;14.08;71.73
71304;DHT22;59091;47.446;19.148;2023-10-19T09:57:58;14.18;71.00
71304;DHT22;59091;47.446;19.148;2023-10-19T10:00:24;14.19;71.15
71304;DHT22;59091;47.446;19.148;2023-10-19T10:02:51;14.26;71.02
71304;DHT22;59091;47.446;19.148;2023-10-19T10:10:48;14.44;70.64
71304;DHT22;59091;47.446;19.148;2023-10-19T10:15:56;14.47;71.00
71304;DHT22;59091;47.446;19.148;2023-10-19T10:18:35;14.47;70.99
71304;DHT22;59091;47.446;19.148;2023-10-19T10:21:07;14.47;71.56
71304;DHT22;59091;47.446;19.148;2023-10-19T10:23:46;14.59;71.23
71304;DHT22;59091;47.446;19.148;2023-10-19T10:26:14;14.88;70.96
71304;DHT22;59091;47.446;19.148;2023-10-19T10:28:40;14.67;71.29
71304;DHT22;59091;47.446;19.148;2023-10-19T10:31:19;14.87;70.79
71304;DHT22;59091;47.446;19.148;2023-10-19T10:33:53;14.76;70.97
71304;DHT22;59091;47.446;19.148;2023-10-19T10:36:22;14.93;71.46
71304;DHT22;59091;47.446;19.148;2023-10-19T10:38:50;15.00;71.54
71304;DHT22;59091;47.446;19.148;2023-10-19T10:41:25;14.95;71.86
71304;DHT22;59091;47.446;19.148;2023-10-19T10:43:55;15.41;72.21
71304;DHT22;59091;47.446;19.148;2023-10-19T10:46:22;15.59;70.34
71304;DHT22;59091;47.446;19.148;2023-10-19T10:48:48;15.86;70.15
71304;DHT22;59091;47.446;19.148;2023-10-19T10:51:22;16.18;68.82
71304;DHT22;59091;47.446;19.148;2023-10-19T10:53:49;16.24;68.59
71304;DHT22;59091;47.446;19.148;2023-10-19T10:56:16;16.27;68.80
71304;DHT22;59091;47.446;19.148;2023-10-19T10:58:42;16.12;69.26
71304;DHT22;59091;47.446;19.148;2023-10-19T11:01:08;16.28;69.14
71304;DHT22;59091;47.446;19.148;2023-10-19T11:03:36;16.21;69.45
71304;DHT22;59091;47.446;19.148;2023-10-19T11:06:05;16.55;68.82
71304;DHT22;59091;47.446;19.148;2023-10-19T11:08:33;16.65;68.87
71304;DHT22;59091;47.446;19.148;2023-10-19T11:11:07;16.91;67.88
71304;DHT22;59091;47.446;19.148;2023-10-19T11:13:36;16.78;68.09
71304;DHT22;59091;47.446;19.148;2023-10-19T11:16:04;16.89;68.31
71304;DHT22;59091;47.446;19.148;2023-10-19T11:18:57;16.68;68.58
71304;DHT22;59091;47.446;19.148;2023-10-19T11:21:22;16.82;68.13
71304;DHT22;59091;47.446;19.148;2023-10-19T11:23:49;16.94;67.89
71304;DHT22;59091;47.446;19.148;2023-10-19T11:26:21;16.99;67.38
71304;DHT22;59091;47.446;19.148;2023-10-19T11:31:24;17.06;67.06
71304;DHT22;59091;47.446;19.148;2023-10-19T11:33:52;17.09;66.56
71304;DHT22;59091;47.446;19.148;2023-10-19T11:36:19;17.22;66.98
71304;DHT22;59091;47.446;19.148;2023-10-19T11:38:47;17.01;66.37
71304;DHT22;59091;47.446;19.148;2023-10-19T11:41:13;16.75;67.35
71304;DHT22;59091;47.446;19.148;2023-10-19T11:43:40;16.84;67.74
71304;DHT22;59091;47.446;19.148;2023-10-19T11:46:07;16.96;67.71
71304;DHT22;59091;47.446;19.148;2023-10-19T11:48:33;16.94;67.79
71304;DHT22;59091;47.446;19.148;2023-10-19T11:51:01;17.08;67.60
71304;DHT22;59091;47.446;19.148;2023-10-19T11:53:31;17.32;66.88
71304;DHT22;59091;47.446;19.148;2023-10-19T11:55:59;17.42;67.15
71304;DHT22;59091;47.446;19.148;2023-10-19T11:58:26;17.45;66.46
71304;DHT22;59091;47.446;19.148;2023-10-19T12:00:51;17.25;66.79
71304;DHT22;59091;47.446;19.148;2023-10-19T12:03:17;17.46;66.63
71304;DHT22;59091;47.446;19.148;2023-10-19T12:05:44;17.46;66.06
71304;DHT22;59091;47.446;19.148;2023-10-19T12:08:09;17.56;66.03
71304;DHT22;59091;47.446;19.148;2023-10-19T12:10:35;17.60;66.19
71304;DHT22;59091;47.446;19.148;2023-10-19T12:13:04;17.43;66.22
71304;DHT22;59091;47.446;19.148;2023-10-19T12:15:34;17.32;67.12
71304;DHT22;59091;47.446;19.148;2023-10-19T12:17:59;17.26;67.67
71304;DHT22;59091;47.446;19.148;2023-10-19T12:20:25;17.43;67.27
71304;DHT22;59091;47.446;19.148;2023-10-19T12:22:51;17.60;66.82
71304;DHT22;59091;47.446;19.148;2023-10-19T12:25:19;17.67;66.97
71304;DHT22;59091;47.446;19.148;2023-10-19T12:27:46;17.78;66.65
71304;DHT22;59091;47.446;19.148;2023-10-19T12:30:12;17.96;66.05
71304;DHT22;59091;47.446;19.148;2023-10-19T12:32:50;18.04;65.68
71304;DHT22;59091;47.446;19.148;2023-10-19T12:35:16;17.87;66.17
71304;DHT22;59091;47.446;19.148;2023-10-19T12:37:45;17.91;66.30
71304;DHT22;59091;47.446;19.148;2023-10-19T12:40:17;17.90;66.47
71304;DHT22;59091;47.446;19.148;2023-10-19T12:42:55;17.74;67.09
71304;DHT22;59091;47.446;19.148;2023-10-19T12:45:24;17.87;66.75
71304;DHT22;59091;47.446;19.148;2023-10-19T12:47:51;17.88;66.84
71304;DHT22;59091;47.446;19.148;2023-10-19T12:50:20;17.90;67.58
71304;DHT22;59091;47.446;19.148;2023-10-19T12:52:49;17.86;67.36
71304;DHT22;59091;47.446;19.148;2023-10-19T12:55:15;17.98;67.14
71304;DHT22;59091;47.446;19.148;2023-10-19T12:57:41;18.18;66.67
71304;DHT22;59091;47.446;19.148;2023-10-19T13:00:07;18.19;66.21
71304;DHT22;59091;47.446;19.148;2023-10-19T13:02:55;18.09;66.24
71304;DHT22;59091;47.446;19.148;2023-10-19T13:05:32;18.01;66.51
71304;DHT22;59091;47.446;19.148;2023-10-19T13:07:57;18.08;66.44
71304;DHT22;59091;47.446;19.148;2023-10-19T13:10:28;18.01;66.57
71304;DHT22;59091;47.446;19.148;2023-10-19T13:12:55;17.87;67.08
71304;DHT22;59091;47.446;19.148;2023-10-19T13:15:20;18.01;66.91
71304;DHT22;59091;47.446;19.148;2023-10-19T13:17:47;18.07;66.76
71304;DHT22;59091;47.446;19.148;2023-10-19T13:20:13;18.25;66.42
71304;DHT22;59091;47.446;19.148;2023-10-19T13:22:43;18.00;66.90
71304;DHT22;59091;47.446;19.148;2023-10-19T13:25:10;17.96;67.23
71304;DHT22;59091;47.446;19.148;2023-10-19T13:27:39;18.08;66.87
71304;DHT22;59091;47.446;19.148;2023-10-19T13:30:07;18.11;66.89
71304;DHT22;59091;47.446;19.148;2023-10-19T13:32:36;18.29;66.60
71304;DHT22;59091;47.446;19.148;2023-10-19T13:35:01;18.34;66.47
71304;DHT22;59091;47.446;19.148;2023-10-19T13:37:27;18.22;67.12
71304;DHT22;59091;47.446;19.148;2023-10-19T13:39:53;18.35;66.77
71304;DHT22;59091;47.446;19.148;2023-10-19T13:42:20;18.44;66.52
71304;DHT22;59091;47.446;19.148;2023-10-19T13:44:47;18.52;66.20
71304;DHT22;59091;47.446;19.148;2023-10-19T13:47:12;18.24;64.87
71304;DHT22;59091;47.446;19.148;2023-10-19T13:49:38;18.01;64.29
71304;DHT22;59091;47.446;19.148;2023-10-19T13:52:03;18.17;64.03
71304;DHT22;59091;47.446;19.148;2023-10-19T13:54:34;18.00;64.27
71304;DHT22;59091;47.446;19.148;2023-10-19T13:57:00;17.98;64.42
71304;DHT22;59091;47.446;19.148;2023-10-19T13:59:28;18.00;64.47
71304;DHT22;59091;47.446;19.148;2023-10-19T14:01:54;17.84;64.87
71304;DHT22;59091;47.446;19.148;2023-10-19T14:04:20;17.60;64.70
71304;DHT22;59091;47.446;19.148;2023-10-19T14:06:45;17.70;64.89
71304;DHT22;59091;47.446;19.148;2023-10-19T14:09:14;17.37;65.66
71304;DHT22;59091;47.446;19.148;2023-10-19T14:11:40;17.27;65.52
71304;DHT22;59091;47.446;19.148;2023-10-19T14:14:06;17.09;66.02
71304;DHT22;59091;47.446;19.148;2023-10-19T14:16:32;17.05;65.94
71304;DHT22;59091;47.446;19.148;2023-10-19T14:18:57;17.05;66.03
71304;DHT22;59091;47.446;19.148;2023-10-19T14:21:23;17.04;66.41
71304;DHT22;59091;47.446;19.148;2023-10-19T14:23:52;16.79;66.68
71304;DHT22;59091;47.446;19.148;2023-10-19T14:26:18;16.53;67.29
71304;DHT22;59091;47.446;19.148;2023-10-19T14:28:44;16.47;67.52
71304;DHT22;59091;47.446;19.148;2023-10-19T14:31:10;16.34;67.91
71304;DHT22;59091;47.446;19.148;2023-10-19T14:33:37;16.34;68.12
71304;DHT22;59091;47.446;19.148;2023-10-19T14:36:06;16.24;68.48
71304;DHT22;59091;47.446;19.148;2023-10-19T14:38:32;16.07;68.74
71304;DHT22;59091;47.446;19.148;2023-10-19T14:40:58;15.97;68.98
71304;DHT22;59091;47.446;19.148;2023-10-19T14:43:24;15.99;68.97
71304;DHT22;59091;47.446;19.148;2023-10-19T14:45:51;15.99;68.88
71304;DHT22;59091;47.446;19.148;2023-10-19T14:48:16;16.04;69.13
71304;DHT22;59091;47.446;19.148;2023-10-19T14:50:44;15.87;69.82
71304;DHT22;59091;47.446;19.148;2023-10-19T14:53:10;15.89;69.68
71304;DHT22;59091;47.446;19.148;2023-10-19T14:55:37;15.79;69.96
71304;DHT22;59091;47.446;19.148;2023-10-19T14:58:02;15.43;71.02
71304;DHT22;59091;47.446;19.148;2023-10-19T15:00:31;15.38;71.10
71304;DHT22;59091;47.446;19.148;2023-10-19T15:03:03;15.70;72.96
71304;DHT22;59091;47.446;19.148;2023-10-19T15:05:37;15.52;70.88
71304;DHT22;59091;47.446;19.148;2023-10-19T15:08:04;15.51;71.02
71304;DHT22;59091;47.446;19.148;2023-10-19T15:10:33;15.46;71.29
71304;DHT22;59091;47.446;19.148;2023-10-19T15:13:00;15.32;71.90
71304;DHT22;59091;47.446;19.148;2023-10-19T15:15:26;15.31;72.27
71304;DHT22;59091;47.446;19.148;2023-10-19T15:17:52;15.04;73.53
71304;DHT22;59091;47.446;19.148;2023-10-19T15:20:19;15.10;73.39
71304;DHT22;59091;47.446;19.148;2023-10-19T15:22:46;15.12;73.39
71304;DHT22;59091;47.446;19.148;2023-10-19T15:25:13;15.11;73.58
71304;DHT22;59091;47.446;19.148;2023-10-19T15:27:41;15.04;74.16
71304;DHT22;59091;47.446;19.148;2023-10-19T15:30:08;15.01;74.11
71304;DHT22;59091;47.446;19.148;2023-10-19T15:32:35;15.21;75.25
71304;DHT22;59091;47.446;19.148;2023-10-19T15:35:01;15.02;74.40
71304;DHT22;59091;47.446;19.148;2023-10-19T15:37:27;15.02;74.29
71304;DHT22;59091;47.446;19.148;2023-10-19T15:39:53;15.05;74.36